sensor_id;sensor_type;location;lat;lon;timestamp;P1;durP1;ratioP1;P2;durP2;ratioP2
4353;SDS011;11018;51.258;6.806;2023-12-20T00:00:16;11.20;;;5.30;;
4353;SDS011;11018;51.258;6.806;2023-12-20T00:02:42;8.48;;;4.50;;
4353;SDS011;11018;51.258;6.806;2023-12-20T00:05:12;9.05;;;4.50;;
4353;SDS011;11018;51.258;6.806;2023-12-20T00:07:38;10.90;;;4.70;;
4353;SDS011;11018;51.258;6.806;2023-12-20T00:10:04;11.10;;;4.77;;
4353;SDS011;11018;51.258;6.806;2023-12-20T00:12:29;11.67;;;5.10;;
4353;SDS011;11018;51.258;6.806;2023-12-20T00:14:55;7.80;;;4.33;;
4353;SDS011;11018;51.258;6.806;2023-12-20T00:17:21;11.13;;;4.50;;
4353;SDS011;11018;51.258;6.806;2023-12-20T00:19:46;15.97;;;4.60;;
4353;SDS011;11018;51.258;6.806;2023-12-20T00:22:12;10.37;;;4.30;;
4353;SDS011;11018;51.258;6.806;2023-12-20T00:24:37;6.70;;;4.03;;
4353;SDS011;11018;51.258;6.806;2023-12-20T00:27:03;13.67;;;5.73;;
4353;SDS011;11018;51.258;6.806;2023-12-20T00:29:28;13.85;;;6.53;;
4353;SDS011;11018;51.258;6.806;2023-12-20T00:31:54;13.77;;;7.30;;
4353;SDS011;11018;51.258;6.806;2023-12-20T00:34:19;22.70;;;6.30;;
4353;SDS011;11018;51.258;6.806;2023-12-20T00:36:45;13.88;;;7.15;;
4353;SDS011;11018;51.258;6.806;2023-12-20T00:39:10;13.95;;;6.60;;
4353;SDS011;11018;51.258;6.806;2023-12-20T00:41:36;7.90;;;5.67;;
4353;SDS011;11018;51.258;6.806;2023-12-20T00:44:02;14.50;;;6.97;;
4353;SDS011;11018;51.258;6.806;2023-12-20T00:46:27;14.38;;;6.82;;
4353;SDS011;11018;51.258;6.806;2023-12-20T00:48:53;11.15;;;6.20;;
4353;SDS011;11018;51.258;6.806;2023-12-20T00:51:18;14.30;;;7.13;;
4353;SDS011;11018;51.258;6.806;2023-12-20T00:53:44;15.90;;;6.53;;
4353;SDS011;11018;51.258;6.806;2023-12-20T00:56:11;10.63;;;6.13;;
4353;SDS011;11018;51.258;6.806;2023-12-20T00:58:36;11.80;;;6.80;;
4353;SDS011;11018;51.258;6.806;2023-12-20T01:01:02;15.50;;;8.00;;
4353;SDS011;11018;51.258;6.806;2023-12-20T01:03:27;12.70;;;7.43;;
4353;SDS011;11018;51.258;6.806;2023-12-20T01:05:53;15.33;;;8.40;;
4353;SDS011;11018;51.258;6.806;2023-12-20T01:08:19;18.00;;;8.67;;
4353;SDS011;11018;51.258;6.806;2023-12-20T01:10:44;18.27;;;9.10;;
4353;SDS011;11018;51.258;6.806;2023-12-20T01:13:11;15.50;;;9.02;;
4353;SDS011;11018;51.258;6.806;2023-12-20T01:15:37;17.95;;;10.77;;
4353;SDS011;11018;51.258;6.806;2023-12-20T01:18:02;18.88;;;10.80;;
4353;SDS011;11018;51.258;6.806;2023-12-20T01:20:28;22.63;;;12.68;;
4353;SDS011;11018;51.258;6.806;2023-12-20T01:22:54;22.73;;;13.47;;
4353;SDS011;11018;51.258;6.806;2023-12-20T01:25:19;24.40;;;13.57;;
4353;SDS011;11018;51.258;6.806;2023-12-20T01:27:45;23.50;;;13.40;;
4353;SDS011;11018;51.258;6.806;2023-12-20T01:30:10;22.23;;;14.57;;
4353;SDS011;11018;51.258;6.806;2023-12-20T01:32:36;24.90;;;15.15;;
4353;SDS011;11018;51.258;6.806;2023-12-20T01:35:01;23.75;;;14.65;;
4353;SDS011;11018;51.258;6.806;2023-12-20T01:37:27;27.27;;;16.00;;
4353;SDS011;11018;51.258;6.806;2023-12-20T01:39:54;29.75;;;15.05;;
4353;SDS011;11018;51.258;6.806;2023-12-20T01:42:19;27.88;;;14.50;;
4353;SDS011;11018;51.258;6.806;2023-12-20T01:44:45;22.48;;;14.27;;
4353;SDS011;11018;51.258;6.806;2023-12-20T01:47:10;23.90;;;14.27;;
4353;SDS011;11018;51.258;6.806;2023-12-20T01:49:37;27.43;;;14.50;;
4353;SDS011;11018;51.258;6.806;2023-12-20T01:52:02;28.60;;;13.57;;
4353;SDS011;11018;51.258;6.806;2023-12-20T01:54:28;24.17;;;13.88;;
4353;SDS011;11018;51.258;6.806;2023-12-20T01:56:55;27.45;;;13.98;;
4353;SDS011;11018;51.258;6.806;2023-12-20T01:59:20;26.15;;;14.75;;
4353;SDS011;11018;51.258;6.806;2023-12-20T02:01:47;26.70;;;13.20;;
4353;SDS011;11018;51.258;6.806;2023-12-20T02:04:12;28.83;;;13.53;;
4353;SDS011;11018;51.258;6.806;2023-12-20T02:06:38;22.77;;;11.60;;
4353;SDS011;11018;51.258;6.806;2023-12-20T02:09:05;22.85;;;11.57;;
4353;SDS011;11018;51.258;6.806;2023-12-20T02:11:32;22.23;;;10.57;;
4353;SDS011;11018;51.258;6.806;2023-12-20T02:13:58;20.10;;;10.45;;
4353;SDS011;11018;51.258;6.806;2023-12-20T02:16:23;24.65;;;10.55;;
4353;SDS011;11018;51.258;6.806;2023-12-20T02:18:49;24.80;;;10.00;;
4353;SDS011;11018;51.258;6.806;2023-12-20T02:21:14;26.10;;;10.57;;
4353;SDS011;11018;51.258;6.806;2023-12-20T02:23:40;28.27;;;11.45;;
4353;SDS011;11018;51.258;6.806;2023-12-20T02:26:06;21.52;;;11.30;;
4353;SDS011;11018;51.258;6.806;2023-12-20T02:28:32;23.52;;;11.65;;
4353;SDS011;11018;51.258;6.806;2023-12-20T02:30:58;21.73;;;10.60;;
4353;SDS011;11018;51.258;6.806;2023-12-20T02:33:24;31.53;;;11.03;;
4353;SDS011;11018;51.258;6.806;2023-12-20T02:35:49;27.73;;;10.60;;
4353;SDS011;11018;51.258;6.806;2023-12-20T02:38:15;22.20;;;10.80;;
4353;SDS011;11018;51.258;6.806;2023-12-20T02:40:40;24.80;;;10.63;;
4353;SDS011;11018;51.258;6.806;2023-12-20T02:43:06;25.67;;;9.93;;
4353;SDS011;11018;51.258;6.806;2023-12-20T02:45:31;24.07;;;9.60;;
4353;SDS011;11018;51.258;6.806;2023-12-20T02:47:57;22.17;;;8.50;;
4353;SDS011;11018;51.258;6.806;2023-12-20T02:50:23;17.57;;;8.13;;
4353;SDS011;11018;51.258;6.806;2023-12-20T02:52:48;24.47;;;9.07;;
4353;SDS011;11018;51.258;6.806;2023-12-20T02:55:14;24.73;;;8.20;;
4353;SDS011;11018;51.258;6.806;2023-12-20T02:57:39;17.90;;;7.17;;
4353;SDS011;11018;51.258;6.806;2023-12-20T03:00:08;20.98;;;6.70;;
4353;SDS011;11018;51.258;6.806;2023-12-20T03:02:35;18.63;;;5.90;;
4353;SDS011;11018;51.258;6.806;2023-12-20T03:05:01;17.98;;;5.80;;
4353;SDS011;11018;51.258;6.806;2023-12-20T03:07:27;15.20;;;5.40;;
4353;SDS011;11018;51.258;6.806;2023-12-20T03:09:52;19.53;;;5.63;;
4353;SDS011;11018;51.258;6.806;2023-12-20T03:12:18;21.50;;;6.10;;
4353;SDS011;11018;51.258;6.806;2023-12-20T03:14:43;18.33;;;5.37;;
4353;SDS011;11018;51.258;6.806;2023-12-20T03:17:09;18.83;;;5.60;;
4353;SDS011;11018;51.258;6.806;2023-12-20T03:19:35;18.65;;;5.28;;
4353;SDS011;11018;51.258;6.806;2023-12-20T03:22:01;20.58;;;5.13;;
4353;SDS011;11018;51.258;6.806;2023-12-20T03:24:27;15.77;;;4.63;;
4353;SDS011;11018;51.258;6.806;2023-12-20T03:26:52;27.50;;;5.50;;
4353;SDS011;11018;51.258;6.806;2023-12-20T03:29:18;23.00;;;5.50;;
4353;SDS011;11018;51.258;6.806;2023-12-20T03:31:43;15.57;;;4.67;;
4353;SDS011;11018;51.258;6.806;2023-12-20T03:34:09;18.23;;;4.83;;
4353;SDS011;11018;51.258;6.806;2023-12-20T03:36:35;21.35;;;4.80;;
4353;SDS011;11018;51.258;6.806;2023-12-20T03:39:01;23.67;;;4.82;;
4353;SDS011;11018;51.258;6.806;2023-12-20T03:41:26;15.52;;;4.88;;
4353;SDS011;11018;51.258;6.806;2023-12-20T03:43:52;21.85;;;4.82;;
4353;SDS011;11018;51.258;6.806;2023-12-20T03:46:17;18.42;;;4.43;;
4353;SDS011;11018;51.258;6.806;2023-12-20T03:48:43;22.48;;;4.80;;
4353;SDS011;11018;51.258;6.806;2023-12-20T03:51:08;15.82;;;4.75;;
4353;SDS011;11018;51.258;6.806;2023-12-20T03:53:34;19.52;;;5.00;;
4353;SDS011;11018;51.258;6.806;2023-12-20T03:55:59;19.63;;;5.00;;
4353;SDS011;11018;51.258;6.806;2023-12-20T03:58:25;18.67;;;5.35;;
4353;SDS011;11018;51.258;6.806;2023-12-20T04:00:51;20.67;;;5.28;;
4353;SDS011;11018;51.258;6.806;2023-12-20T04:03:16;22.48;;;5.03;;
4353;SDS011;11018;51.258;6.806;2023-12-20T04:05:42;22.25;;;5.35;;
4353;SDS011;11018;51.258;6.806;2023-12-20T04:08:07;19.33;;;4.80;;
4353;SDS011;11018;51.258;6.806;2023-12-20T04:10:34;25.35;;;5.57;;
4353;SDS011;11018;51.258;6.806;2023-12-20T04:13:00;15.10;;;5.07;;
4353;SDS011;11018;51.258;6.806;2023-12-20T04:15:25;20.63;;;5.43;;
4353;SDS011;11018;51.258;6.806;2023-12-20T04:17:51;24.17;;;5.80;;
4353;SDS011;11018;51.258;6.806;2023-12-20T04:20:17;24.37;;;5.93;;
4353;SDS011;11018;51.258;6.806;2023-12-20T04:22:42;23.03;;;5.70;;
4353;SDS011;11018;51.258;6.806;2023-12-20T04:25:08;20.50;;;6.20;;
4353;SDS011;11018;51.258;6.806;2023-12-20T04:27:33;15.63;;;5.57;;
4353;SDS011;11018;51.258;6.806;2023-12-20T04:29:59;18.67;;;6.10;;
4353;SDS011;11018;51.258;6.806;2023-12-20T04:32:24;17.80;;;6.20;;
4353;SDS011;11018;51.258;6.806;2023-12-20T04:34:50;20.47;;;6.00;;
4353;SDS011;11018;51.258;6.806;2023-12-20T04:37:16;18.77;;;6.23;;
4353;SDS011;11018;51.258;6.806;2023-12-20T04:39:41;27.03;;;7.40;;
4353;SDS011;11018;51.258;6.806;2023-12-20T04:42:07;23.42;;;6.13;;
4353;SDS011;11018;51.258;6.806;2023-12-20T04:44:33;24.40;;;6.95;;
4353;SDS011;11018;51.258;6.806;2023-12-20T04:46:59;29.02;;;7.40;;
4353;SDS011;11018;51.258;6.806;2023-12-20T04:49:25;20.50;;;6.90;;
4353;SDS011;11018;51.258;6.806;2023-12-20T04:51:50;27.53;;;7.17;;
4353;SDS011;11018;51.258;6.806;2023-12-20T04:54:16;26.50;;;7.47;;
4353;SDS011;11018;51.258;6.806;2023-12-20T04:56:41;24.53;;;6.70;;
4353;SDS011;11018;51.258;6.806;2023-12-20T04:59:07;20.87;;;6.40;;
4353;SDS011;11018;51.258;6.806;2023-12-20T05:01:32;28.47;;;7.60;;
4353;SDS011;11018;51.258;6.806;2023-12-20T05:03:58;18.27;;;7.15;;
4353;SDS011;11018;51.258;6.806;2023-12-20T05:06:24;18.92;;;6.80;;
4353;SDS011;11018;51.258;6.806;2023-12-20T05:08:49;21.40;;;7.40;;
4353;SDS011;11018;51.258;6.806;2023-12-20T05:11:15;25.42;;;7.40;;
4353;SDS011;11018;51.258;6.806;2023-12-20T05:13:41;23.05;;;7.28;;
4353;SDS011;11018;51.258;6.806;2023-12-20T05:16:07;19.17;;;7.00;;
4353;SDS011;11018;51.258;6.806;2023-12-20T05:18:33;20.60;;;7.10;;
4353;SDS011;11018;51.258;6.806;2023-12-20T05:20:59;23.80;;;6.47;;
4353;SDS011;11018;51.258;6.806;2023-12-20T05:23:25;19.95;;;6.47;;
4353;SDS011;11018;51.258;6.806;2023-12-20T05:25:51;20.77;;;6.10;;
4353;SDS011;11018;51.258;6.806;2023-12-20T05:28:16;26.42;;;7.68;;
4353;SDS011;11018;51.258;6.806;2023-12-20T05:30:42;28.50;;;7.10;;
4353;SDS011;11018;51.258;6.806;2023-12-20T05:33:08;22.90;;;6.60;;
4353;SDS011;11018;51.258;6.806;2023-12-20T05:35:34;24.30;;;7.10;;
4353;SDS011;11018;51.258;6.806;2023-12-20T05:38:00;21.10;;;7.35;;
4353;SDS011;11018;51.258;6.806;2023-12-20T05:40:25;23.07;;;6.83;;
4353;SDS011;11018;51.258;6.806;2023-12-20T05:42:51;27.93;;;7.70;;
4353;SDS011;11018;51.258;6.806;2023-12-20T05:45:16;23.53;;;6.77;;
4353;SDS011;11018;51.258;6.806;2023-12-20T05:47:42;20.75;;;6.40;;
4353;SDS011;11018;51.258;6.806;2023-12-20T05:50:07;24.30;;;6.80;;
4353;SDS011;11018;51.258;6.806;2023-12-20T05:52:34;19.73;;;6.38;;
4353;SDS011;11018;51.258;6.806;2023-12-20T05:54:59;19.88;;;6.30;;
4353;SDS011;11018;51.258;6.806;2023-12-20T05:57:26;19.63;;;6.70;;
4353;SDS011;11018;51.258;6.806;2023-12-20T05:59:52;20.25;;;6.65;;
4353;SDS011;11018;51.258;6.806;2023-12-20T06:02:17;20.77;;;6.53;;
4353;SDS011;11018;51.258;6.806;2023-12-20T06:04:43;22.33;;;6.03;;
4353;SDS011;11018;51.258;6.806;2023-12-20T06:07:11;25.35;;;6.70;;
4353;SDS011;11018;51.258;6.806;2023-12-20T06:09:37;21.90;;;6.60;;
4353;SDS011;11018;51.258;6.806;2023-12-20T06:12:03;23.40;;;6.70;;
4353;SDS011;11018;51.258;6.806;2023-12-20T06:14:29;22.43;;;7.50;;
4353;SDS011;11018;51.258;6.806;2023-12-20T06:16:55;22.85;;;7.13;;
4353;SDS011;11018;51.258;6.806;2023-12-20T06:19:24;24.00;;;6.90;;
4353;SDS011;11018;51.258;6.806;2023-12-20T06:21:49;24.20;;;7.30;;
4353;SDS011;11018;51.258;6.806;2023-12-20T06:24:15;23.20;;;6.80;;
4353;SDS011;11018;51.258;6.806;2023-12-20T06:26:40;25.37;;;7.60;;
4353;SDS011;11018;51.258;6.806;2023-12-20T06:29:06;21.00;;;7.33;;
4353;SDS011;11018;51.258;6.806;2023-12-20T06:31:32;25.10;;;7.80;;
4353;SDS011;11018;51.258;6.806;2023-12-20T06:33:58;25.10;;;7.70;;
4353;SDS011;11018;51.258;6.806;2023-12-20T06:36:24;25.00;;;7.22;;
4353;SDS011;11018;51.258;6.806;2023-12-20T06:38:50;30.05;;;7.43;;
4353;SDS011;11018;51.258;6.806;2023-12-20T06:41:16;25.33;;;7.40;;
4353;SDS011;11018;51.258;6.806;2023-12-20T06:43:42;22.63;;;7.65;;
4353;SDS011;11018;51.258;6.806;2023-12-20T06:46:08;25.55;;;8.77;;
4353;SDS011;11018;51.258;6.806;2023-12-20T06:48:34;24.33;;;7.43;;
4353;SDS011;11018;51.258;6.806;2023-12-20T06:51:00;28.00;;;8.03;;
4353;SDS011;11018;51.258;6.806;2023-12-20T06:53:29;25.73;;;8.13;;
4353;SDS011;11018;51.258;6.806;2023-12-20T06:55:55;20.38;;;6.93;;
4353;SDS011;11018;51.258;6.806;2023-12-20T06:58:23;32.80;;;8.60;;
4353;SDS011;11018;51.258;6.806;2023-12-20T07:00:49;21.00;;;7.38;;
4353;SDS011;11018;51.258;6.806;2023-12-20T07:03:16;21.63;;;7.93;;
4353;SDS011;11018;51.258;6.806;2023-12-20T07:05:42;27.17;;;9.00;;
4353;SDS011;11018;51.258;6.806;2023-12-20T07:08:07;23.70;;;8.30;;
4353;SDS011;11018;51.258;6.806;2023-12-20T07:10:33;20.10;;;7.57;;
4353;SDS011;11018;51.258;6.806;2023-12-20T07:12:58;27.10;;;8.07;;
4353;SDS011;11018;51.258;6.806;2023-12-20T07:15:24;27.57;;;7.70;;
4353;SDS011;11018;51.258;6.806;2023-12-20T07:17:49;32.60;;;7.87;;
4353;SDS011;11018;51.258;6.806;2023-12-20T07:20:15;23.60;;;7.00;;
4353;SDS011;11018;51.258;6.806;2023-12-20T07:22:40;23.23;;;7.27;;
4353;SDS011;11018;51.258;6.806;2023-12-20T07:25:06;25.07;;;7.90;;
4353;SDS011;11018;51.258;6.806;2023-12-20T07:27:32;31.10;;;7.53;;
4353;SDS011;11018;51.258;6.806;2023-12-20T07:29:58;27.73;;;6.80;;
4353;SDS011;11018;51.258;6.806;2023-12-20T07:32:23;24.37;;;7.20;;
4353;SDS011;11018;51.258;6.806;2023-12-20T07:34:49;28.00;;;7.60;;
4353;SDS011;11018;51.258;6.806;2023-12-20T07:37:14;26.23;;;9.07;;
4353;SDS011;11018;51.258;6.806;2023-12-20T07:39:40;25.17;;;7.30;;
4353;SDS011;11018;51.258;6.806;2023-12-20T07:42:10;26.15;;;7.20;;
4353;SDS011;11018;51.258;6.806;2023-12-20T07:44:35;19.13;;;7.18;;
4353;SDS011;11018;51.258;6.806;2023-12-20T07:47:01;24.95;;;8.63;;
4353;SDS011;11018;51.258;6.806;2023-12-20T07:49:27;31.27;;;7.47;;
4353;SDS011;11018;51.258;6.806;2023-12-20T07:51:52;26.35;;;9.23;;
4353;SDS011;11018;51.258;6.806;2023-12-20T07:54:18;24.67;;;7.90;;
4353;SDS011;11018;51.258;6.806;2023-12-20T07:56:46;27.13;;;8.33;;
4353;SDS011;11018;51.258;6.806;2023-12-20T07:59:12;23.52;;;8.10;;
4353;SDS011;11018;51.258;6.806;2023-12-20T08:01:37;25.23;;;7.80;;
4353;SDS011;11018;51.258;6.806;2023-12-20T08:04:03;26.20;;;7.87;;
4353;SDS011;11018;51.258;6.806;2023-12-20T08:06:28;17.27;;;7.95;;
4353;SDS011;11018;51.258;6.806;2023-12-20T08:08:54;35.03;;;8.73;;
4353;SDS011;11018;51.258;6.806;2023-12-20T08:11:19;25.40;;;7.87;;
4353;SDS011;11018;51.258;6.806;2023-12-20T08:13:45;25.08;;;7.43;;
4353;SDS011;11018;51.258;6.806;2023-12-20T08:16:11;22.05;;;7.40;;
4353;SDS011;11018;51.258;6.806;2023-12-20T08:18:38;26.42;;;7.53;;
4353;SDS011;11018;51.258;6.806;2023-12-20T08:21:04;25.53;;;8.40;;
4353;SDS011;11018;51.258;6.806;2023-12-20T08:23:32;25.33;;;7.90;;
4353;SDS011;11018;51.258;6.806;2023-12-20T08:25:58;20.50;;;6.90;;
4353;SDS011;11018;51.258;6.806;2023-12-20T08:28:23;21.93;;;6.70;;
4353;SDS011;11018;51.258;6.806;2023-12-20T08:30:49;25.17;;;7.07;;
4353;SDS011;11018;51.258;6.806;2023-12-20T08:33:18;23.70;;;6.95;;
4353;SDS011;11018;51.258;6.806;2023-12-20T08:35:44;24.05;;;6.82;;
4353;SDS011;11018;51.258;6.806;2023-12-20T08:38:09;21.83;;;6.50;;
4353;SDS011;11018;51.258;6.806;2023-12-20T08:40:35;25.58;;;6.70;;
4353;SDS011;11018;51.258;6.806;2023-12-20T08:43:00;21.30;;;6.30;;
4353;SDS011;11018;51.258;6.806;2023-12-20T08:45:26;27.52;;;6.65;;
4353;SDS011;11018;51.258;6.806;2023-12-20T08:47:52;22.30;;;7.00;;
4353;SDS011;11018;51.258;6.806;2023-12-20T08:50:17;27.45;;;6.03;;
4353;SDS011;11018;51.258;6.806;2023-12-20T08:52:43;24.50;;;6.72;;
4353;SDS011;11018;51.258;6.806;2023-12-20T08:55:09;22.13;;;6.35;;
4353;SDS011;11018;51.258;6.806;2023-12-20T08:57:38;25.00;;;6.38;;
4353;SDS011;11018;51.258;6.806;2023-12-20T09:00:03;30.30;;;6.50;;
4353;SDS011;11018;51.258;6.806;2023-12-20T09:02:29;22.08;;;6.82;;
4353;SDS011;11018;51.258;6.806;2023-12-20T09:04:55;20.90;;;5.60;;
4353;SDS011;11018;51.258;6.806;2023-12-20T09:07:24;22.90;;;5.80;;
4353;SDS011;11018;51.258;6.806;2023-12-20T09:09:51;14.95;;;5.70;;
4353;SDS011;11018;51.258;6.806;2023-12-20T09:12:17;27.08;;;6.30;;
4353;SDS011;11018;51.258;6.806;2023-12-20T09:14:44;21.98;;;5.75;;
4353;SDS011;11018;51.258;6.806;2023-12-20T09:17:10;28.92;;;6.82;;
4353;SDS011;11018;51.258;6.806;2023-12-20T09:19:37;24.70;;;6.45;;
4353;SDS011;11018;51.258;6.806;2023-12-20T09:22:02;29.00;;;6.93;;
4353;SDS011;11018;51.258;6.806;2023-12-20T09:24:28;15.52;;;5.50;;
4353;SDS011;11018;51.258;6.806;2023-12-20T09:26:55;20.00;;;5.65;;
4353;SDS011;11018;51.258;6.806;2023-12-20T09:29:20;15.43;;;5.23;;
4353;SDS011;11018;51.258;6.806;2023-12-20T09:31:46;22.97;;;5.90;;
4353;SDS011;11018;51.258;6.806;2023-12-20T09:34:13;20.08;;;5.65;;
4353;SDS011;11018;51.258;6.806;2023-12-20T09:36:39;22.98;;;5.53;;
4353;SDS011;11018;51.258;6.806;2023-12-20T09:39:11;20.93;;;5.57;;
4353;SDS011;11018;51.258;6.806;2023-12-20T09:41:37;19.27;;;5.97;;
4353;SDS011;11018;51.258;6.806;2023-12-20T09:44:14;27.48;;;5.70;;
4353;SDS011;11018;51.258;6.806;2023-12-20T09:46:43;21.63;;;5.50;;
4353;SDS011;11018;51.258;6.806;2023-12-20T09:49:10;22.08;;;5.32;;
4353;SDS011;11018;51.258;6.806;2023-12-20T09:51:37;19.17;;;6.03;;
4353;SDS011;11018;51.258;6.806;2023-12-20T09:54:04;26.20;;;5.63;;
4353;SDS011;11018;51.258;6.806;2023-12-20T09:56:30;22.50;;;5.27;;
4353;SDS011;11018;51.258;6.806;2023-12-20T09:58:56;14.43;;;4.90;;
4353;SDS011;11018;51.258;6.806;2023-12-20T10:01:22;21.50;;;5.18;;
4353;SDS011;11018;51.258;6.806;2023-12-20T10:03:49;23.33;;;5.50;;
4353;SDS011;11018;51.258;6.806;2023-12-20T10:06:16;25.80;;;5.38;;
4353;SDS011;11018;51.258;6.806;2023-12-20T10:08:42;19.50;;;5.85;;
4353;SDS011;11018;51.258;6.806;2023-12-20T10:11:08;20.67;;;5.30;;
4353;SDS011;11018;51.258;6.806;2023-12-20T10:13:34;23.02;;;6.00;;
4353;SDS011;11018;51.258;6.806;2023-12-20T10:16:05;19.20;;;4.75;;
4353;SDS011;11018;51.258;6.806;2023-12-20T10:18:32;29.48;;;6.10;;
4353;SDS011;11018;51.258;6.806;2023-12-20T10:20:58;16.47;;;5.30;;
4353;SDS011;11018;51.258;6.806;2023-12-20T10:23:23;24.93;;;5.60;;
4353;SDS011;11018;51.258;6.806;2023-12-20T10:25:59;22.42;;;5.65;;
4353;SDS011;11018;51.258;6.806;2023-12-20T10:28:25;25.30;;;5.77;;
4353;SDS011;11018;51.258;6.806;2023-12-20T10:30:52;18.20;;;5.90;;
4353;SDS011;11018;51.258;6.806;2023-12-20T10:33:24;21.35;;;6.10;;
4353;SDS011;11018;51.258;6.806;2023-12-20T10:35:54;20.20;;;5.20;;
4353;SDS011;11018;51.258;6.806;2023-12-20T10:38:20;20.57;;;4.63;;
4353;SDS011;11018;51.258;6.806;2023-12-20T10:40:46;20.38;;;5.80;;
4353;SDS011;11018;51.258;6.806;2023-12-20T10:43:12;22.13;;;5.90;;
4353;SDS011;11018;51.258;6.806;2023-12-20T10:45:38;19.98;;;5.70;;
4353;SDS011;11018;51.258;6.806;2023-12-20T10:48:04;21.13;;;5.50;;
4353;SDS011;11018;51.258;6.806;2023-12-20T10:50:30;31.17;;;5.60;;
4353;SDS011;11018;51.258;6.806;2023-12-20T10:52:56;20.50;;;5.10;;
4353;SDS011;11018;51.258;6.806;2023-12-20T10:55:23;25.25;;;5.70;;
4353;SDS011;11018;51.258;6.806;2023-12-20T10:57:52;21.05;;;5.05;;
4353;SDS011;11018;51.258;6.806;2023-12-20T11:00:25;19.65;;;5.47;;
4353;SDS011;11018;51.258;6.806;2023-12-20T11:02:51;22.45;;;5.50;;
4353;SDS011;11018;51.258;6.806;2023-12-20T11:13:16;19.25;;;5.40;;
4353;SDS011;11018;51.258;6.806;2023-12-20T11:15:47;19.85;;;6.00;;
4353;SDS011;11018;51.258;6.806;2023-12-20T11:18:13;16.05;;;5.35;;
4353;SDS011;11018;51.258;6.806;2023-12-20T11:20:41;24.42;;;5.90;;
4353;SDS011;11018;51.258;6.806;2023-12-20T11:23:09;15.25;;;5.50;;
4353;SDS011;11018;51.258;6.806;2023-12-20T11:28:33;22.80;;;5.45;;
4353;SDS011;11018;51.258;6.806;2023-12-20T11:31:00;27.17;;;6.30;;
4353;SDS011;11018;51.258;6.806;2023-12-20T11:33:29;16.50;;;5.30;;
4353;SDS011;11018;51.258;6.806;2023-12-20T11:35:56;18.55;;;5.80;;
4353;SDS011;11018;51.258;6.806;2023-12-20T11:38:22;24.13;;;6.68;;
4353;SDS011;11018;51.258;6.806;2023-12-20T11:40:49;29.42;;;5.80;;
4353;SDS011;11018;51.258;6.806;2023-12-20T11:43:31;17.60;;;4.90;;
4353;SDS011;11018;51.258;6.806;2023-12-20T11:46:06;19.98;;;5.20;;
4353;SDS011;11018;51.258;6.806;2023-12-20T11:48:34;21.00;;;5.13;;
4353;SDS011;11018;51.258;6.806;2023-12-20T11:51:02;20.85;;;5.53;;
4353;SDS011;11018;51.258;6.806;2023-12-20T11:53:33;19.85;;;4.93;;
4353;SDS011;11018;51.258;6.806;2023-12-20T11:55:59;22.03;;;6.30;;
4353;SDS011;11018;51.258;6.806;2023-12-20T11:58:25;21.00;;;5.47;;
4353;SDS011;11018;51.258;6.806;2023-12-20T12:00:50;25.30;;;4.93;;
4353;SDS011;11018;51.258;6.806;2023-12-20T12:03:16;19.65;;;5.00;;
4353;SDS011;11018;51.258;6.806;2023-12-20T12:05:42;22.33;;;5.13;;
4353;SDS011;11018;51.258;6.806;2023-12-20T12:08:07;17.20;;;5.03;;
4353;SDS011;11018;51.258;6.806;2023-12-20T12:10:33;18.30;;;5.23;;
4353;SDS011;11018;51.258;6.806;2023-12-20T12:12:59;17.83;;;5.32;;
4353;SDS011;11018;51.258;6.806;2023-12-20T12:15:25;18.20;;;5.03;;
4353;SDS011;11018;51.258;6.806;2023-12-20T12:17:54;20.57;;;5.37;;
4353;SDS011;11018;51.258;6.806;2023-12-20T12:20:24;17.90;;;5.30;;
4353;SDS011;11018;51.258;6.806;2023-12-20T12:22:59;28.25;;;6.10;;
4353;SDS011;11018;51.258;6.806;2023-12-20T12:25:26;13.98;;;4.90;;
4353;SDS011;11018;51.258;6.806;2023-12-20T12:27:53;15.95;;;4.88;;
4353;SDS011;11018;51.258;6.806;2023-12-20T12:30:19;18.40;;;5.63;;
4353;SDS011;11018;51.258;6.806;2023-12-20T12:32:44;18.10;;;5.30;;
4353;SDS011;11018;51.258;6.806;2023-12-20T12:35:10;23.43;;;5.93;;
4353;SDS011;11018;51.258;6.806;2023-12-20T12:37:39;19.70;;;5.80;;
4353;SDS011;11018;51.258;6.806;2023-12-20T12:40:06;17.63;;;5.80;;
4353;SDS011;11018;51.258;6.806;2023-12-20T12:42:36;21.38;;;5.75;;
4353;SDS011;11018;51.258;6.806;2023-12-20T12:45:02;24.77;;;6.10;;
4353;SDS011;11018;51.258;6.806;2023-12-20T12:47:29;16.40;;;5.40;;
4353;SDS011;11018;51.258;6.806;2023-12-20T12:49:55;15.27;;;4.97;;
4353;SDS011;11018;51.258;6.806;2023-12-20T12:52:21;19.92;;;5.50;;
4353;SDS011;11018;51.258;6.806;2023-12-20T12:54:46;23.67;;;6.15;;
4353;SDS011;11018;51.258;6.806;2023-12-20T12:57:13;16.98;;;5.40;;
4353;SDS011;11018;51.258;6.806;2023-12-20T12:59:39;25.15;;;5.70;;
4353;SDS011;11018;51.258;6.806;2023-12-20T13:02:05;24.17;;;6.53;;
4353;SDS011;11018;51.258;6.806;2023-12-20T13:04:30;22.30;;;6.30;;
4353;SDS011;11018;51.258;6.806;2023-12-20T13:06:56;20.00;;;6.53;;
4353;SDS011;11018;51.258;6.806;2023-12-20T13:09:22;18.42;;;6.72;;
4353;SDS011;11018;51.258;6.806;2023-12-20T13:11:48;21.70;;;6.55;;
4353;SDS011;11018;51.258;6.806;2023-12-20T13:14:13;24.83;;;7.18;;
4353;SDS011;11018;51.258;6.806;2023-12-20T13:16:40;20.35;;;6.53;;
4353;SDS011;11018;51.258;6.806;2023-12-20T13:19:06;22.60;;;7.28;;
4353;SDS011;11018;51.258;6.806;2023-12-20T13:21:32;21.45;;;7.75;;
4353;SDS011;11018;51.258;6.806;2023-12-20T13:23:58;22.48;;;6.55;;
4353;SDS011;11018;51.258;6.806;2023-12-20T13:26:24;18.20;;;6.47;;
4353;SDS011;11018;51.258;6.806;2023-12-20T13:28:49;21.87;;;6.40;;
4353;SDS011;11018;51.258;6.806;2023-12-20T13:31:15;22.73;;;6.53;;
4353;SDS011;11018;51.258;6.806;2023-12-20T13:33:40;22.87;;;7.80;;
4353;SDS011;11018;51.258;6.806;2023-12-20T13:36:06;22.67;;;6.90;;
4353;SDS011;11018;51.258;6.806;2023-12-20T13:38:32;20.17;;;6.60;;
4353;SDS011;11018;51.258;6.806;2023-12-20T13:40:58;22.53;;;6.40;;
4353;SDS011;11018;51.258;6.806;2023-12-20T13:43:24;20.95;;;6.60;;
4353;SDS011;11018;51.258;6.806;2023-12-20T13:45:50;19.73;;;6.57;;
4353;SDS011;11018;51.258;6.806;2023-12-20T13:48:16;17.70;;;7.30;;
4353;SDS011;11018;51.258;6.806;2023-12-20T13:50:41;14.85;;;6.78;;
4353;SDS011;11018;51.258;6.806;2023-12-20T13:53:07;18.85;;;6.55;;
4353;SDS011;11018;51.258;6.806;2023-12-20T13:55:32;20.90;;;7.10;;
4353;SDS011;11018;51.258;6.806;2023-12-20T13:57:58;20.35;;;7.45;;
4353;SDS011;11018;51.258;6.806;2023-12-20T14:00:23;16.50;;;6.65;;
4353;SDS011;11018;51.258;6.806;2023-12-20T14:02:49;18.38;;;7.35;;
4353;SDS011;11018;51.258;6.806;2023-12-20T14:05:15;18.88;;;6.93;;
4353;SDS011;11018;51.258;6.806;2023-12-20T14:07:43;23.27;;;7.43;;
4353;SDS011;11018;51.258;6.806;2023-12-20T14:10:12;16.10;;;7.28;;
4353;SDS011;11018;51.258;6.806;2023-12-20T14:12:40;16.73;;;6.10;;
4353;SDS011;11018;51.258;6.806;2023-12-20T14:15:06;20.77;;;7.18;;
4353;SDS011;11018;51.258;6.806;2023-12-20T14:17:36;19.25;;;7.10;;
4353;SDS011;11018;51.258;6.806;2023-12-20T14:20:03;21.08;;;7.40;;
4353;SDS011;11018;51.258;6.806;2023-12-20T14:22:33;20.70;;;7.18;;
4353;SDS011;11018;51.258;6.806;2023-12-20T14:24:59;20.67;;;6.57;;
4353;SDS011;11018;51.258;6.806;2023-12-20T14:27:25;20.67;;;6.40;;
4353;SDS011;11018;51.258;6.806;2023-12-20T14:29:52;22.33;;;6.82;;
4353;SDS011;11018;51.258;6.806;2023-12-20T14:32:18;18.10;;;7.00;;
4353;SDS011;11018;51.258;6.806;2023-12-20T14:34:44;15.30;;;6.20;;
4353;SDS011;11018;51.258;6.806;2023-12-20T14:37:10;21.63;;;6.03;;
4353;SDS011;11018;51.258;6.806;2023-12-20T14:39:36;15.57;;;6.33;;
4353;SDS011;11018;51.258;6.806;2023-12-20T14:42:06;21.50;;;6.10;;
4353;SDS011;11018;51.258;6.806;2023-12-20T14:44:36;20.95;;;6.10;;
4353;SDS011;11018;51.258;6.806;2023-12-20T14:47:01;22.80;;;6.60;;
4353;SDS011;11018;51.258;6.806;2023-12-20T14:49:27;17.38;;;6.20;;